createdAt,value
2017-12-20T00:01:58.501Z,12.67
2017-12-20T00:04:41.668Z,7.97
2017-12-20T00:07:24.169Z,10.33
2017-12-20T00:10:07.146Z,9.57
2017-12-20T00:12:50.038Z,9.70
2017-12-20T00:15:33.839Z,10.40
2017-12-20T00:18:16.642Z,12.70
2017-12-20T00:21:08.619Z,7.73
2017-12-20T00:23:51.097Z,10.33
2017-12-20T00:26:33.900Z,8.70
2017-12-20T00:29:16.818Z,10.20
2017-12-20T00:31:59.662Z,12.20
2017-12-20T00:34:48.260Z,11.27
2017-12-20T00:37:31.094Z,9.50
2017-12-20T00:40:13.764Z,13.00
2017-12-20T00:42:56.472Z,15.80
2017-12-20T00:45:39.107Z,9.07
2017-12-20T00:48:21.974Z,11.40
2017-12-20T00:51:06.549Z,10.23
2017-12-20T00:53:49.307Z,12.80
2017-12-20T00:56:31.924Z,10.70
2017-12-20T00:59:14.486Z,10.80
2017-12-20T01:01:57.218Z,10.50
2017-12-20T01:04:40.003Z,8.60
2017-12-20T01:07:22.752Z,9.43
2017-12-20T01:10:06.896Z,10.73
2017-12-20T01:12:49.788Z,9.87
2017-12-20T01:15:32.486Z,9.43
2017-12-20T01:18:22.354Z,8.73
2017-12-20T01:21:04.858Z,9.60
2017-12-20T01:23:47.627Z,11.07
2017-12-20T01:26:29.717Z,11.30
2017-12-20T01:29:19.726Z,12.90
2017-12-20T01:32:02.191Z,11.13
2017-12-20T01:34:44.687Z,17.43
2017-12-20T01:37:27.521Z,10.27
2017-12-20T01:40:10.439Z,10.70
2017-12-20T01:42:53.318Z,12.70
2017-12-20T01:45:37.442Z,10.10
2017-12-20T01:48:19.879Z,9.93
2017-12-20T01:51:02.575Z,9.73
2017-12-20T01:53:45.210Z,10.80
2017-12-20T01:56:27.918Z,12.60
2017-12-20T01:59:10.850Z,12.03
2017-12-20T02:01:53.548Z,11.30
2017-12-20T02:04:36.156Z,12.23
2017-12-20T02:07:18.813Z,12.63
2017-12-20T02:10:01.372Z,10.53
2017-12-20T02:12:45.197Z,9.17
2017-12-20T02:15:27.618Z,11.93
2017-12-20T02:18:10.444Z,11.43
2017-12-20T02:20:53.556Z,16.73
2017-12-20T02:23:36.398Z,12.33
2017-12-20T02:26:19.477Z,12.47
2017-12-20T02:29:02.042Z,13.33
2017-12-20T02:31:44.882Z,14.37
2017-12-20T02:34:27.918Z,13.77
2017-12-20T02:37:10.458Z,15.37
2017-12-20T02:39:53.332Z,16.23
2017-12-20T02:42:35.797Z,14.03
2017-12-20T02:45:31.563Z,15.70
2017-12-20T02:48:14.364Z,11.87
2017-12-20T02:51:03.449Z,14.00
2017-12-20T02:53:46.102Z,14.70
2017-12-20T02:56:29.494Z,13.97
2017-12-20T02:59:12.087Z,16.50
2017-12-20T03:02:01.962Z,20.50
2017-12-20T03:04:45.027Z,13.40
2017-12-20T03:07:27.442Z,12.60
2017-12-20T03:10:09.906Z,15.97
2017-12-20T03:12:52.871Z,18.60
2017-12-20T03:15:35.371Z,28.93
2017-12-20T03:18:23.899Z,20.47
2017-12-20T03:21:06.597Z,20.30
2017-12-20T03:23:49.361Z,23.03
2017-12-20T03:26:32.179Z,19.10
2017-12-20T03:29:14.798Z,16.97
2017-12-20T03:31:57.473Z,19.50
2017-12-20T03:34:46.896Z,25.50
2017-12-20T03:37:29.787Z,19.90
2017-12-20T03:40:12.390Z,15.43
2017-12-20T03:42:55.312Z,22.30
2017-12-20T03:45:38.151Z,19.83
2017-12-20T03:48:20.667Z,26.90
2017-12-20T03:51:03.454Z,25.63
2017-12-20T03:53:46.458Z,25.70
2017-12-20T03:56:29.226Z,18.50
2017-12-20T03:59:12.138Z,22.53
2017-12-20T04:02:02.462Z,18.40
2017-12-20T04:04:45.470Z,20.10
2017-12-20T04:07:28.586Z,18.73
2017-12-20T04:10:11.352Z,17.37
2017-12-20T04:12:54.003Z,22.53
2017-12-20T04:15:36.743Z,27.17
2017-12-20T04:18:19.403Z,22.80
2017-12-20T04:21:02.115Z,22.83
2017-12-20T04:23:44.955Z,20.70
2017-12-20T04:26:27.437Z,19.50
2017-12-20T04:29:10.026Z,20.03
2017-12-20T04:31:52.525Z,18.90
2017-12-20T04:34:35.203Z,17.17
2017-12-20T04:37:17.931Z,33.40
2017-12-20T04:40:00.782Z,19.60
2017-12-20T04:42:43.292Z,20.60
2017-12-20T04:45:26.018Z,18.47
2017-12-20T04:48:08.802Z,18.60
2017-12-20T04:50:51.323Z,16.90
2017-12-20T04:53:34.234Z,16.37
2017-12-20T04:56:16.810Z,15.77
2017-12-20T04:58:59.275Z,20.73
2017-12-20T05:01:42.242Z,16.57
2017-12-20T05:04:25.097Z,15.80
2017-12-20T05:07:07.759Z,20.23
2017-12-20T05:09:50.432Z,21.97
2017-12-20T05:12:33.102Z,21.50
2017-12-20T05:15:15.791Z,18.33
2017-12-20T05:17:58.419Z,18.33
2017-12-20T05:20:48.896Z,21.27
2017-12-20T05:23:31.825Z,19.87
2017-12-20T05:26:14.538Z,16.67
2017-12-20T05:28:57.143Z,28.77
2017-12-20T05:31:39.907Z,15.57
2017-12-20T05:34:22.580Z,34.60
2017-12-20T05:37:05.277Z,17.47
2017-12-20T05:39:48.122Z,13.97
2017-12-20T05:42:30.910Z,18.00
2017-12-20T05:45:13.577Z,23.73
2017-12-20T05:47:56.196Z,13.83
2017-12-20T05:50:38.746Z,14.43
2017-12-20T05:53:21.454Z,17.27
2017-12-20T05:56:04.096Z,8.20
2017-12-20T05:58:46.738Z,13.73
2017-12-20T06:01:29.334Z,10.77
2017-12-20T06:04:11.957Z,17.80
2017-12-20T06:06:56.223Z,13.80
2017-12-20T06:09:39.169Z,11.50
2017-12-20T06:12:21.774Z,24.63
2017-12-20T06:15:04.676Z,10.93
2017-12-20T06:17:47.426Z,11.97
2017-12-20T06:20:30.294Z,9.83
2017-12-20T06:23:13.043Z,15.27
2017-12-20T06:25:55.727Z,11.40
2017-12-20T06:28:38.558Z,18.13
2017-12-20T06:31:21.379Z,13.67
2017-12-20T06:34:05.364Z,28.60
2017-12-20T06:36:47.826Z,11.30
2017-12-20T06:39:30.458Z,8.63
2017-12-20T06:42:13.507Z,12.37
2017-12-20T06:44:56.286Z,16.57
2017-12-20T06:47:39.243Z,11.40
2017-12-20T06:50:35.613Z,17.07
2017-12-20T06:53:18.554Z,12.33
2017-12-20T06:56:01.353Z,10.37
2017-12-20T06:58:44.514Z,9.07
2017-12-20T07:01:27.361Z,14.80
2017-12-20T07:04:16.177Z,16.40
2017-12-20T07:06:58.666Z,12.63
2017-12-20T07:09:41.311Z,7.80
2017-12-20T07:12:23.930Z,10.43
2017-12-20T07:15:10.411Z,8.43
2017-12-20T07:17:53.531Z,9.13
2017-12-20T07:20:35.941Z,6.17
2017-12-20T07:23:25.562Z,9.60
2017-12-20T07:26:09.166Z,26.37
2017-12-20T07:28:52.061Z,10.33
2017-12-20T07:31:34.874Z,11.10
2017-12-20T07:34:17.489Z,9.47
2017-12-20T07:37:09.214Z,12.93
2017-12-20T07:39:52.118Z,6.73
2017-12-20T07:42:34.242Z,9.20
2017-12-20T07:45:17.422Z,15.60
2017-12-20T07:47:59.799Z,9.23
2017-12-20T07:50:42.601Z,8.10
2017-12-20T07:53:25.742Z,10.13
2017-12-20T07:56:10.310Z,8.70
2017-12-20T07:58:53.140Z,11.23
2017-12-20T08:01:35.983Z,27.70
2017-12-20T08:04:18.655Z,8.43
2017-12-20T08:07:01.347Z,14.43
2017-12-20T08:09:51.103Z,7.17
2017-12-20T08:12:33.863Z,16.70
2017-12-20T08:15:16.706Z,9.37
2017-12-20T08:17:59.287Z,5.83
2017-12-20T08:20:41.750Z,6.80
2017-12-20T08:23:25.187Z,3.53
2017-12-20T08:26:08.030Z,5.03
2017-12-20T08:28:50.804Z,7.77
2017-12-20T08:31:33.393Z,11.30
2017-12-20T08:34:16.042Z,4.73
2017-12-20T08:36:58.889Z,4.33
2017-12-20T08:39:41.474Z,6.43
2017-12-20T08:42:24.007Z,6.53
2017-12-20T08:45:06.845Z,5.97
2017-12-20T08:47:49.431Z,9.73
2017-12-20T08:50:32.005Z,6.40
2017-12-20T08:53:14.634Z,21.47
2017-12-20T08:55:59.095Z,11.50
2017-12-20T08:58:41.905Z,5.67
2017-12-20T09:01:24.728Z,5.40
2017-12-20T09:04:07.423Z,13.70
2017-12-20T09:06:50.034Z,11.03
2017-12-20T09:09:37.595Z,7.97
2017-12-20T09:12:19.715Z,8.73
2017-12-20T09:15:02.523Z,9.90
2017-12-20T09:17:45.665Z,18.43
2017-12-20T09:20:27.990Z,3.60
2017-12-20T09:23:10.560Z,4.77
2017-12-20T09:25:53.211Z,7.30
2017-12-20T09:28:36.575Z,8.20
2017-12-20T09:31:19.475Z,2.93
2017-12-20T09:34:02.188Z,8.03
2017-12-20T09:36:44.763Z,29.80
2017-12-20T09:39:31.335Z,12.50
2017-12-20T09:42:14.282Z,6.73
2017-12-20T09:44:56.856Z,4.83
2017-12-20T09:47:39.756Z,16.53
2017-12-20T09:50:22.069Z,17.00
2017-12-20T09:53:04.958Z,6.33
2017-12-20T09:55:47.854Z,5.33
2017-12-20T09:58:30.659Z,2.23
2017-12-20T10:01:13.350Z,7.30
2017-12-20T10:03:56.105Z,42.47
2017-12-20T10:06:38.845Z,13.13
2017-12-20T10:09:21.725Z,18.43
2017-12-20T10:12:05.195Z,4.40
2017-12-20T10:14:47.681Z,8.70
2017-12-20T10:17:30.237Z,3.20
2017-12-20T10:20:12.871Z,3.80
2017-12-20T10:22:55.649Z,7.77
2017-12-20T10:25:38.309Z,3.70
2017-12-20T10:28:27.762Z,8.27
2017-12-20T10:31:10.582Z,3.50
2017-12-20T10:33:53.275Z,5.83
2017-12-20T10:36:35.810Z,10.80
2017-12-20T10:39:19.614Z,5.90
2017-12-20T10:42:02.542Z,8.63
2017-12-20T10:44:45.303Z,6.50
2017-12-20T10:47:27.944Z,12.77
2017-12-20T10:50:10.575Z,11.13
2017-12-20T10:52:53.054Z,23.57
2017-12-20T10:55:36.540Z,26.23
2017-12-20T10:58:26.051Z,8.50
2017-12-20T11:01:08.961Z,9.90
2017-12-20T11:03:51.801Z,34.83
2017-12-20T11:06:34.313Z,18.57
2017-12-20T11:09:16.786Z,13.70
2017-12-20T11:11:59.373Z,14.23
2017-12-20T11:14:41.954Z,13.33
2017-12-20T11:17:24.673Z,10.43
2017-12-20T11:20:07.077Z,11.70
2017-12-20T11:22:50.582Z,15.93
2017-12-20T11:25:33.522Z,16.00
2017-12-20T11:28:15.991Z,15.47
2017-12-20T11:30:58.600Z,13.40
2017-12-20T11:33:41.185Z,11.83
2017-12-20T11:36:23.799Z,14.30
2017-12-20T11:39:06.350Z,26.40
2017-12-20T11:41:49.103Z,16.53
2017-12-20T11:44:32.851Z,23.53
2017-12-20T11:47:15.601Z,17.93
2017-12-20T11:49:58.120Z,14.60
2017-12-20T11:52:41.034Z,17.60
2017-12-20T11:55:23.528Z,16.63
2017-12-20T11:58:05.871Z,12.30
2017-12-20T12:00:48.715Z,20.20
2017-12-20T12:03:31.364Z,17.00
2017-12-20T12:06:13.879Z,16.30
2017-12-20T12:08:56.257Z,19.77
2017-12-20T12:11:38.669Z,15.37
2017-12-20T12:14:21.394Z,22.00
2017-12-20T12:17:03.878Z,14.67
2017-12-20T12:19:47.613Z,31.97
2017-12-20T12:22:30.503Z,24.67
2017-12-20T12:25:12.672Z,22.73
2017-12-20T12:27:55.354Z,17.37
2017-12-20T12:30:38.280Z,18.17
2017-12-20T12:33:20.845Z,17.33
2017-12-20T12:36:03.650Z,21.73
2017-12-20T12:38:46.156Z,20.67
2017-12-20T12:41:28.718Z,17.40
2017-12-20T12:44:11.346Z,15.13
2017-12-20T12:46:54.040Z,17.80
2017-12-20T12:49:36.884Z,27.17
2017-12-20T12:52:19.507Z,15.70
2017-12-20T12:55:02.164Z,15.07
2017-12-20T12:57:44.782Z,17.83
2017-12-20T13:00:27.248Z,17.17
2017-12-20T13:03:10.570Z,12.87
2017-12-20T13:05:53.520Z,12.17
2017-12-20T13:08:42.115Z,14.83
2017-12-20T13:11:25.894Z,22.50
2017-12-20T13:14:08.371Z,14.50
2017-12-20T13:16:50.937Z,16.00
2017-12-20T13:19:33.967Z,13.33
2017-12-20T13:22:16.447Z,14.30
2017-12-20T13:25:07.462Z,14.10
2017-12-20T13:27:49.709Z,19.90
2017-12-20T13:30:32.412Z,24.30
2017-12-20T13:33:15.040Z,19.07
2017-12-20T13:35:57.722Z,15.27
2017-12-20T13:38:40.667Z,23.20
2017-12-20T13:41:29.485Z,27.43
2017-12-20T13:44:11.886Z,21.90
2017-12-20T13:46:54.599Z,17.87
2017-12-20T13:49:37.208Z,23.00
2017-12-20T13:52:19.870Z,14.80
2017-12-20T13:55:03.043Z,28.83
2017-12-20T13:57:45.849Z,16.50
2017-12-20T14:00:28.614Z,15.70
2017-12-20T14:03:18.398Z,18.90
2017-12-20T14:06:01.240Z,14.70
2017-12-20T14:08:44.030Z,22.10
2017-12-20T14:11:27.135Z,28.83
2017-12-20T14:14:09.592Z,17.90
2017-12-20T14:17:05.311Z,19.00
2017-12-20T14:19:48.704Z,17.97
2017-12-20T14:22:31.589Z,25.20
2017-12-20T14:25:14.446Z,19.27
2017-12-20T14:27:58.891Z,15.03
2017-12-20T14:30:41.712Z,22.77
2017-12-20T14:33:24.672Z,13.70
2017-12-20T14:36:08.286Z,16.30
2017-12-20T14:38:50.682Z,15.77
2017-12-20T14:41:33.464Z,20.20
2017-12-20T14:44:17.852Z,20.30
2017-12-20T14:47:07.085Z,13.37
2017-12-20T14:49:49.263Z,22.73
2017-12-20T14:52:31.906Z,14.60
2017-12-20T14:55:20.913Z,17.93
2017-12-20T14:58:17.190Z,17.00
2017-12-20T15:01:00.262Z,18.80
2017-12-20T15:03:42.822Z,18.57
2017-12-20T15:06:25.581Z,17.17
2017-12-20T15:09:08.171Z,19.60
2017-12-20T15:11:52.203Z,14.50
2017-12-20T15:14:34.755Z,21.97
2017-12-20T15:17:17.300Z,20.73
2017-12-20T15:20:00.071Z,30.43
2017-12-20T15:22:42.590Z,19.60
2017-12-20T15:25:25.105Z,28.70
2017-12-20T15:28:07.671Z,23.70
2017-12-20T15:30:50.374Z,17.90
2017-12-20T15:33:33.745Z,11.83
2017-12-20T15:36:16.622Z,29.37
2017-12-20T15:38:59.210Z,40.27
2017-12-20T15:41:42.000Z,14.17
2017-12-20T15:44:25.636Z,21.90
2017-12-20T15:47:08.443Z,17.70
2017-12-20T15:49:50.962Z,24.20
2017-12-20T15:52:33.469Z,48.03
2017-12-20T15:55:16.351Z,29.33
2017-12-20T15:58:11.575Z,34.67
2017-12-20T16:00:54.649Z,35.90
2017-12-20T16:03:43.183Z,47.90
2017-12-20T16:06:25.780Z,43.23
2017-12-20T16:09:08.238Z,36.10
2017-12-20T16:11:51.002Z,30.40
2017-12-20T16:14:33.718Z,85.70
2017-12-20T16:17:16.349Z,110.27
2017-12-20T16:19:59.013Z,29.23
2017-12-20T16:22:42.671Z,39.70
2017-12-20T16:25:25.088Z,39.93
2017-12-20T16:28:07.952Z,43.57
2017-12-20T16:30:51.336Z,119.60
2017-12-20T16:33:34.147Z,71.50
2017-12-20T16:36:16.822Z,48.07
2017-12-20T16:38:59.416Z,59.30
2017-12-20T16:41:42.058Z,55.77
2017-12-20T16:44:31.512Z,29.30
2017-12-20T16:47:14.406Z,27.10
2017-12-20T16:49:57.462Z,31.03
2017-12-20T16:52:47.622Z,42.90
2017-12-20T16:55:30.527Z,78.60
2017-12-20T16:58:12.998Z,49.47
2017-12-20T17:00:55.075Z,67.03
2017-12-20T17:03:37.813Z,32.13
2017-12-20T17:06:20.515Z,41.07
2017-12-20T17:09:03.225Z,41.23
2017-12-20T17:11:45.762Z,16.87
2017-12-20T17:14:28.519Z,35.27
2017-12-20T17:17:11.136Z,26.07
2017-12-20T17:20:01.611Z,18.43
2017-12-20T17:22:44.561Z,38.17
2017-12-20T17:25:27.246Z,50.23
2017-12-20T17:28:14.058Z,21.40
2017-12-20T17:30:57.722Z,33.60
2017-12-20T17:33:40.650Z,31.97
2017-12-20T17:36:23.284Z,38.63
2017-12-20T17:39:06.041Z,15.40
2017-12-20T17:41:48.922Z,17.07
2017-12-20T17:44:44.866Z,16.13
2017-12-20T17:47:27.418Z,35.40
2017-12-20T17:50:10.119Z,73.90
2017-12-20T17:52:52.747Z,51.40
2017-12-20T17:55:35.546Z,35.50
2017-12-20T17:58:18.192Z,18.20
2017-12-20T18:01:00.932Z,42.33
2017-12-20T18:03:43.550Z,19.70
2017-12-20T18:06:26.493Z,27.33
2017-12-20T18:09:09.448Z,36.60
2017-12-20T18:11:52.085Z,30.40
2017-12-20T18:14:34.679Z,26.63
2017-12-20T18:17:17.726Z,24.03
2017-12-20T18:20:00.438Z,19.03
2017-12-20T18:22:43.071Z,49.13
2017-12-20T18:25:25.863Z,51.97
2017-12-20T18:28:12.675Z,98.70
2017-12-20T18:30:55.801Z,46.20
2017-12-20T18:33:52.425Z,61.50
2017-12-20T18:36:35.353Z,45.00
2017-12-20T18:39:25.586Z,57.30
2017-12-20T18:42:08.135Z,27.97
2017-12-20T18:44:50.945Z,35.70
2017-12-20T18:47:33.910Z,22.80
2017-12-20T18:50:16.819Z,39.83
2017-12-20T18:53:07.447Z,22.40
2017-12-20T18:55:50.363Z,27.70
2017-12-20T18:58:33.012Z,19.80
2017-12-20T19:01:16.416Z,22.57
2017-12-20T19:03:59.329Z,66.77
2017-12-20T19:06:41.951Z,20.40
2017-12-20T19:09:24.742Z,37.23
2017-12-20T19:12:07.663Z,42.00
2017-12-20T19:14:50.580Z,27.37
2017-12-20T19:17:33.358Z,30.03
2017-12-20T19:20:16.018Z,24.63
2017-12-20T19:22:59.101Z,36.67
2017-12-20T19:25:43.174Z,24.47
2017-12-20T19:28:25.998Z,55.63
2017-12-20T19:31:08.106Z,95.70
2017-12-20T19:33:51.097Z,65.97
2017-12-20T19:36:34.063Z,83.47
2017-12-20T19:39:17.071Z,67.77
2017-12-20T19:41:59.389Z,99.77
2017-12-20T19:44:43.033Z,62.50
2017-12-20T19:47:27.063Z,82.20
2017-12-20T19:50:11.367Z,30.17
2017-12-20T19:52:54.142Z,75.90
2017-12-20T19:55:37.178Z,30.77
2017-12-20T19:58:19.983Z,26.33
2017-12-20T20:01:02.566Z,41.10
2017-12-20T20:03:45.355Z,45.77
2017-12-20T20:06:28.955Z,24.33
2017-12-20T20:09:11.910Z,32.47
2017-12-20T20:11:54.531Z,32.53
2017-12-20T20:14:37.033Z,25.90
2017-12-20T20:17:19.727Z,10.90
2017-12-20T20:20:01.914Z,14.50
2017-12-20T20:22:44.954Z,28.30
2017-12-20T20:25:27.983Z,78.83
2017-12-20T20:28:10.373Z,111.10
2017-12-20T20:31:06.253Z,65.20
2017-12-20T20:33:52.940Z,77.23
2017-12-20T20:36:35.814Z,41.83
2017-12-20T20:39:18.452Z,79.90
2017-12-20T20:42:01.174Z,17.90
2017-12-20T20:44:43.749Z,31.87
2017-12-20T20:47:26.551Z,18.93
2017-12-20T20:50:09.294Z,20.17
2017-12-20T20:52:52.358Z,32.63
2017-12-20T20:55:34.918Z,37.37
2017-12-20T20:58:17.700Z,66.10
2017-12-20T21:01:13.960Z,36.10
2017-12-20T21:04:03.409Z,68.23
2017-12-20T21:06:46.910Z,51.33
2017-12-20T21:09:38.726Z,44.20
2017-12-20T21:12:21.643Z,28.77
2017-12-20T21:15:04.307Z,29.60
2017-12-20T21:17:52.892Z,35.97
2017-12-20T21:20:36.766Z,53.90
2017-12-20T21:23:19.610Z,40.73
2017-12-20T21:26:02.203Z,42.80
2017-12-20T21:28:45.211Z,51.63
2017-12-20T21:31:27.406Z,41.77
2017-12-20T21:34:09.688Z,61.83
2017-12-20T21:36:51.785Z,87.77
2017-12-20T21:39:34.066Z,55.00
2017-12-20T21:42:16.267Z,33.70
2017-12-20T21:44:58.954Z,21.67
2017-12-20T21:47:41.717Z,14.60
2017-12-20T21:50:25.602Z,19.60
2017-12-20T21:53:14.363Z,14.93
2017-12-20T21:55:56.574Z,37.63
2017-12-20T21:58:39.366Z,36.73
2017-12-20T22:01:22.271Z,20.83
2017-12-20T22:04:05.259Z,38.77
2017-12-20T22:06:48.674Z,30.57
2017-12-20T22:09:31.434Z,65.87
2017-12-20T22:12:14.310Z,20.03
2017-12-20T22:14:57.158Z,33.93
2017-12-20T22:17:39.782Z,26.63
2017-12-20T22:20:22.450Z,34.77
2017-12-20T22:23:05.307Z,31.43
2017-12-20T22:25:48.190Z,14.43
2017-12-20T22:28:30.957Z,13.20
2017-12-20T22:31:14.665Z,18.37
2017-12-20T22:34:11.278Z,13.13
2017-12-20T22:36:54.061Z,14.30
2017-12-20T22:39:36.287Z,14.43
2017-12-20T22:42:21.941Z,18.50
2017-12-20T22:45:04.419Z,6.60
2017-12-20T22:47:46.518Z,17.63
2017-12-20T22:50:28.955Z,60.77
2017-12-20T22:53:11.620Z,50.27
2017-12-20T22:55:54.614Z,75.70
2017-12-20T22:58:37.278Z,42.27
2017-12-20T23:01:20.015Z,33.37
2017-12-20T23:04:02.777Z,23.77
2017-12-20T23:06:45.594Z,31.73
2017-12-20T23:09:28.373Z,43.13
2017-12-20T23:12:11.144Z,33.07
2017-12-20T23:14:54.217Z,20.40
2017-12-20T23:17:36.527Z,17.00
2017-12-20T23:20:19.350Z,10.23
2017-12-20T23:23:02.496Z,23.30
2017-12-20T23:25:44.842Z,12.80
2017-12-20T23:28:27.728Z,9.70
2017-12-20T23:31:10.654Z,13.27
2017-12-20T23:33:53.391Z,24.90
2017-12-20T23:36:36.028Z,11.30
2017-12-20T23:39:18.754Z,9.23
2017-12-20T23:42:01.553Z,15.07
2017-12-20T23:44:44.179Z,12.50
2017-12-20T23:47:26.850Z,10.80
2017-12-20T23:50:09.760Z,15.43
2017-12-20T23:52:52.794Z,17.93
2017-12-20T23:55:34.935Z,16.77
2017-12-20T23:58:17.220Z,18.90
